createdAt,value
2018-03-15T00:02:17.213Z,4.43
2018-03-15T00:04:44.064Z,4.30
2018-03-15T00:07:11.119Z,4.00
2018-03-15T00:09:37.967Z,3.50
2018-03-15T00:12:05.327Z,3.53
2018-03-15T00:14:32.180Z,5.47
2018-03-15T00:16:59.022Z,3.60
2018-03-15T00:19:27.001Z,3.70
2018-03-15T00:21:54.156Z,4.60
2018-03-15T00:24:21.002Z,3.37
2018-03-15T00:26:47.754Z,3.23
2018-03-15T00:29:14.593Z,3.00
2018-03-15T00:31:41.451Z,3.40
2018-03-15T00:34:08.200Z,6.20
2018-03-15T00:36:37.501Z,3.90
2018-03-15T00:39:04.866Z,3.33
2018-03-15T00:41:31.610Z,3.63
2018-03-15T00:43:58.966Z,3.87
2018-03-15T00:46:25.924Z,3.20
2018-03-15T00:48:52.664Z,3.57
2018-03-15T00:51:19.721Z,3.70
2018-03-15T00:53:46.568Z,3.63
2018-03-15T00:56:13.626Z,4.03
2018-03-15T00:58:40.675Z,3.70
2018-03-15T01:01:07.637Z,3.70
2018-03-15T01:03:35.602Z,4.53
2018-03-15T01:06:02.962Z,5.23
2018-03-15T01:08:30.018Z,4.17
2018-03-15T01:10:56.771Z,5.47
2018-03-15T01:13:24.122Z,3.60
2018-03-15T01:15:51.077Z,3.13
2018-03-15T01:18:18.232Z,2.60
2018-03-15T01:20:45.184Z,3.13
2018-03-15T01:23:11.931Z,3.40
2018-03-15T01:25:38.674Z,3.23
2018-03-15T01:28:05.932Z,3.30
2018-03-15T01:30:32.987Z,3.60
2018-03-15T01:32:59.838Z,3.33
2018-03-15T01:35:26.582Z,2.70
2018-03-15T01:37:53.533Z,3.13
2018-03-15T01:40:20.691Z,3.80
2018-03-15T01:42:47.948Z,2.90
2018-03-15T01:45:15.001Z,3.30
2018-03-15T01:47:42.265Z,2.70
2018-03-15T01:50:10.030Z,3.33
2018-03-15T01:52:37.394Z,3.00
2018-03-15T01:55:04.243Z,2.20
2018-03-15T01:57:30.986Z,6.10
2018-03-15T01:59:58.021Z,2.60
2018-03-15T02:02:24.788Z,2.53
2018-03-15T02:04:52.555Z,2.70
2018-03-15T02:07:19.818Z,3.20
2018-03-15T02:09:46.974Z,1.97
2018-03-15T02:12:14.331Z,2.67
2018-03-15T02:14:41.183Z,3.87
2018-03-15T02:17:08.132Z,3.77
2018-03-15T02:19:35.189Z,2.27
2018-03-15T02:22:03.498Z,2.80
2018-03-15T02:24:30.624Z,2.73
2018-03-15T02:26:58.495Z,2.57
2018-03-15T02:29:27.815Z,2.57
2018-03-15T02:32:03.553Z,2.83
2018-03-15T02:34:30.400Z,3.83
2018-03-15T02:36:57.150Z,4.83
2018-03-15T02:39:24.099Z,3.90
2018-03-15T02:41:50.955Z,2.60
2018-03-15T02:44:17.800Z,4.23
2018-03-15T02:46:45.469Z,3.73
2018-03-15T02:49:13.446Z,2.53
2018-03-15T02:51:43.678Z,6.03
2018-03-15T02:54:11.439Z,4.37
2018-03-15T02:56:38.287Z,1.93
2018-03-15T02:59:05.952Z,2.40
2018-03-15T03:01:33.110Z,2.67
2018-03-15T03:04:00.059Z,2.83
2018-03-15T03:06:26.913Z,2.20
2018-03-15T03:08:53.944Z,2.80
2018-03-15T03:11:21.527Z,2.87
2018-03-15T03:13:48.584Z,2.53
2018-03-15T03:16:15.242Z,2.10
2018-03-15T03:18:42.692Z,3.73
2018-03-15T03:21:09.523Z,2.80
2018-03-15T03:23:36.400Z,2.57
2018-03-15T03:26:03.133Z,5.37
2018-03-15T03:28:31.724Z,2.90
2018-03-15T03:30:58.470Z,2.73
2018-03-15T03:33:25.323Z,3.00
2018-03-15T03:35:52.578Z,4.47
2018-03-15T03:38:19.834Z,4.10
2018-03-15T03:40:46.558Z,2.30
2018-03-15T03:43:14.044Z,2.53
2018-03-15T03:45:41.099Z,9.93
2018-03-15T03:48:08.052Z,2.50
2018-03-15T03:50:34.796Z,5.47
2018-03-15T03:53:03.183Z,3.90
2018-03-15T03:55:30.032Z,6.50
2018-03-15T03:57:56.777Z,4.00
2018-03-15T04:00:23.628Z,4.63
2018-03-15T04:02:50.668Z,2.47
2018-03-15T04:05:18.044Z,2.60
2018-03-15T04:07:45.200Z,2.93
2018-03-15T04:10:11.944Z,3.10
2018-03-15T04:12:38.692Z,2.77
2018-03-15T04:15:08.176Z,2.33
2018-03-15T04:17:37.638Z,2.37
2018-03-15T04:20:06.716Z,2.83
2018-03-15T04:22:33.966Z,2.20
2018-03-15T04:25:01.839Z,2.03
2018-03-15T04:27:28.583Z,2.70
2018-03-15T04:29:55.636Z,2.30
2018-03-15T04:32:23.084Z,2.73
2018-03-15T04:34:49.831Z,3.83
2018-03-15T04:37:17.413Z,2.50
2018-03-15T04:39:44.569Z,2.87
2018-03-15T04:42:11.353Z,2.23
2018-03-15T04:44:38.373Z,2.87
2018-03-15T04:47:05.220Z,2.67
2018-03-15T04:49:32.067Z,2.53
2018-03-15T04:51:58.811Z,2.00
2018-03-15T04:54:25.869Z,2.43
2018-03-15T04:56:52.743Z,2.00
2018-03-15T04:59:20.888Z,3.50
2018-03-15T05:01:48.053Z,2.60
2018-03-15T05:04:15.716Z,2.27
2018-03-15T05:06:42.787Z,2.40
2018-03-15T05:09:11.448Z,1.70
2018-03-15T05:11:39.436Z,2.37
2018-03-15T05:14:07.084Z,2.20
2018-03-15T05:16:36.030Z,3.17
2018-03-15T05:19:05.107Z,2.03
2018-03-15T05:21:32.461Z,2.27
2018-03-15T05:24:01.542Z,1.97
2018-03-15T05:26:30.050Z,2.00
2018-03-15T05:28:58.048Z,2.53
2018-03-15T05:31:25.180Z,2.43
2018-03-15T05:33:51.927Z,2.97
2018-03-15T05:36:18.981Z,2.10
2018-03-15T05:38:46.751Z,2.00
2018-03-15T05:41:15.136Z,2.80
2018-03-15T05:43:43.908Z,2.10
2018-03-15T05:46:11.494Z,5.00
2018-03-15T05:48:38.810Z,1.87
2018-03-15T05:51:06.826Z,3.93
2018-03-15T05:53:34.085Z,3.60
2018-03-15T05:56:00.935Z,3.07
2018-03-15T05:58:27.785Z,3.03
2018-03-15T06:00:54.632Z,2.50
2018-03-15T06:03:21.377Z,2.13
2018-03-15T06:05:48.537Z,2.00
2018-03-15T06:08:15.485Z,2.10
2018-03-15T06:10:42.338Z,2.20
2018-03-15T06:13:09.390Z,1.90
2018-03-15T06:15:36.146Z,3.23
2018-03-15T06:18:03.549Z,1.90
2018-03-15T06:20:31.959Z,1.77
2018-03-15T06:23:01.291Z,1.63
2018-03-15T06:25:28.238Z,2.00
2018-03-15T06:27:55.803Z,1.87
2018-03-15T06:30:22.860Z,1.67
2018-03-15T06:32:51.010Z,1.60
2018-03-15T06:35:19.624Z,1.67
2018-03-15T06:37:47.708Z,1.40
2018-03-15T06:40:15.662Z,1.60
2018-03-15T06:42:42.633Z,2.13
2018-03-15T06:45:09.477Z,1.97
2018-03-15T06:47:36.735Z,1.67
2018-03-15T06:50:04.405Z,1.83
2018-03-15T06:52:31.460Z,2.10
2018-03-15T06:54:58.720Z,1.60
2018-03-15T06:57:26.180Z,2.07
2018-03-15T06:59:53.236Z,1.50
2018-03-15T07:02:19.980Z,1.90
2018-03-15T07:04:46.726Z,1.97
2018-03-15T07:07:14.291Z,1.80
2018-03-15T07:09:41.243Z,1.50
2018-03-15T07:12:08.401Z,1.60
2018-03-15T07:14:36.179Z,1.43
2018-03-15T07:17:10.282Z,1.53
2018-03-15T07:19:37.439Z,1.90
2018-03-15T07:22:05.518Z,1.57
2018-03-15T07:24:33.080Z,1.60
2018-03-15T07:27:00.444Z,1.73
2018-03-15T07:29:27.192Z,1.70
2018-03-15T07:31:54.043Z,1.30
2018-03-15T07:34:21.400Z,1.80
2018-03-15T07:36:48.553Z,1.53
2018-03-15T07:39:15.420Z,1.27
2018-03-15T07:41:45.717Z,1.43
2018-03-15T07:44:13.501Z,1.60
2018-03-15T07:46:40.250Z,1.37
2018-03-15T07:49:07.305Z,1.00
2018-03-15T07:51:34.354Z,1.40
2018-03-15T07:54:01.919Z,1.17
2018-03-15T07:56:28.770Z,1.17
2018-03-15T07:58:56.124Z,1.37
2018-03-15T08:01:23.391Z,1.10
2018-03-15T08:03:52.079Z,1.30
2018-03-15T08:06:19.748Z,0.90
2018-03-15T08:08:46.686Z,1.10
2018-03-15T08:11:13.648Z,1.00
2018-03-15T08:13:40.399Z,0.90
2018-03-15T08:16:07.249Z,1.23
2018-03-15T08:18:34.405Z,0.90
2018-03-15T08:21:02.072Z,0.97
2018-03-15T08:23:29.330Z,0.80
2018-03-15T08:25:56.179Z,1.17
2018-03-15T08:28:23.025Z,1.27
2018-03-15T08:30:50.593Z,1.17
2018-03-15T08:33:17.542Z,1.00
2018-03-15T08:35:44.595Z,1.00
2018-03-15T08:38:11.550Z,1.60
2018-03-15T08:40:38.861Z,1.40
2018-03-15T08:43:06.885Z,1.20
2018-03-15T08:45:33.734Z,1.00
2018-03-15T08:48:00.583Z,0.87
2018-03-15T08:50:27.327Z,0.80
2018-03-15T08:52:54.384Z,0.80
2018-03-15T08:55:21.231Z,0.87
2018-03-15T08:57:47.915Z,1.50
2018-03-15T09:00:14.736Z,1.80
2018-03-15T09:02:41.482Z,0.97
2018-03-15T09:05:08.218Z,0.70
2018-03-15T09:07:34.957Z,0.80
2018-03-15T09:10:02.324Z,1.10
2018-03-15T09:12:29.172Z,1.27
2018-03-15T09:14:56.023Z,1.00
2018-03-15T09:17:22.769Z,1.33
2018-03-15T09:19:49.515Z,1.10
2018-03-15T09:22:16.261Z,0.60
2018-03-15T09:24:43.418Z,1.30
2018-03-15T09:27:10.165Z,0.60
2018-03-15T09:29:37.015Z,0.60
2018-03-15T09:32:03.861Z,0.93
2018-03-15T09:34:31.499Z,0.80
2018-03-15T09:36:58.205Z,0.70
2018-03-15T09:39:25.023Z,0.60
2018-03-15T09:41:51.975Z,0.60
2018-03-15T09:44:18.824Z,1.43
2018-03-15T09:46:45.569Z,0.60
2018-03-15T09:49:12.421Z,1.00
2018-03-15T09:51:39.171Z,0.77
2018-03-15T09:54:07.243Z,1.47
2018-03-15T09:56:35.748Z,0.80
2018-03-15T09:59:02.577Z,0.40
2018-03-15T10:01:30.143Z,0.30
2018-03-15T10:03:58.853Z,0.70
2018-03-15T10:06:25.784Z,0.83
2018-03-15T10:08:53.659Z,0.87
2018-03-15T10:11:20.404Z,0.67
2018-03-15T10:13:48.283Z,0.40
2018-03-15T10:16:15.229Z,0.40
2018-03-15T10:18:42.385Z,0.53
2018-03-15T10:21:09.129Z,0.70
2018-03-15T10:23:36.399Z,1.07
2018-03-15T10:26:03.155Z,0.60
2018-03-15T10:28:29.986Z,0.93
2018-03-15T10:30:56.747Z,0.40
2018-03-15T10:33:39.133Z,0.63
2018-03-15T10:36:06.089Z,0.40
2018-03-15T10:38:33.346Z,0.50
2018-03-15T10:41:00.078Z,0.30
2018-03-15T10:43:27.251Z,0.43
2018-03-15T10:45:53.993Z,0.30
2018-03-15T10:48:20.742Z,0.50
2018-03-15T10:50:48.002Z,0.30
2018-03-15T10:53:14.855Z,0.40
2018-03-15T10:55:41.577Z,0.47
2018-03-15T10:58:08.302Z,0.40
2018-03-15T11:00:42.343Z,0.60
2018-03-15T11:03:15.137Z,0.33
2018-03-15T11:05:47.104Z,0.30
2018-03-15T11:08:19.993Z,0.30
2018-03-15T11:10:47.337Z,0.60
2018-03-15T11:13:14.099Z,0.40
2018-03-15T11:15:40.947Z,1.03
2018-03-15T11:18:07.916Z,0.87
2018-03-15T11:20:35.569Z,0.40
2018-03-15T11:23:02.312Z,0.43
2018-03-15T11:25:29.059Z,0.20
2018-03-15T11:27:55.908Z,0.40
2018-03-15T11:30:22.654Z,0.47
2018-03-15T11:32:49.509Z,0.30
2018-03-15T11:35:17.171Z,0.40
2018-03-15T11:37:43.919Z,0.60
2018-03-15T11:40:10.664Z,2.23
2018-03-15T11:42:37.423Z,0.87
2018-03-15T11:45:04.262Z,0.50
2018-03-15T11:47:31.927Z,1.27
2018-03-15T11:49:59.187Z,0.50
2018-03-15T11:52:26.240Z,0.60
2018-03-15T11:54:53.294Z,0.70
2018-03-15T11:57:20.553Z,1.23
2018-03-15T11:59:47.300Z,0.50
2018-03-15T12:02:14.327Z,2.30
2018-03-15T12:04:41.101Z,0.67
2018-03-15T12:07:07.844Z,0.80
2018-03-15T12:09:34.797Z,0.60
2018-03-15T12:12:01.544Z,0.30
2018-03-15T12:14:28.538Z,0.50
2018-03-15T12:16:58.636Z,0.43
2018-03-15T12:19:25.879Z,0.40
2018-03-15T12:21:52.630Z,1.17
2018-03-15T12:24:20.094Z,0.40
2018-03-15T12:26:47.230Z,0.40
2018-03-15T12:29:16.035Z,0.40
2018-03-15T12:31:44.521Z,0.63
2018-03-15T12:34:11.473Z,0.20
2018-03-15T12:36:38.322Z,0.83
2018-03-15T12:39:05.070Z,2.07
2018-03-15T12:41:31.919Z,0.83
2018-03-15T12:43:58.664Z,0.83
2018-03-15T12:46:26.128Z,0.67
2018-03-15T12:48:52.979Z,0.40
2018-03-15T12:51:19.828Z,0.63
2018-03-15T12:53:49.199Z,0.90
2018-03-15T12:56:16.363Z,0.50
2018-03-15T12:58:43.955Z,0.77
2018-03-15T13:01:11.530Z,0.67
2018-03-15T13:03:38.677Z,0.73
2018-03-15T13:06:05.425Z,2.20
2018-03-15T13:08:33.011Z,0.40
2018-03-15T13:10:59.837Z,0.57
2018-03-15T13:13:27.813Z,0.53
2018-03-15T13:15:54.561Z,1.40
2018-03-15T13:18:22.125Z,0.30
2018-03-15T13:20:49.898Z,0.40
2018-03-15T13:23:16.849Z,0.50
2018-03-15T13:25:44.415Z,1.20
2018-03-15T13:28:11.567Z,1.87
2018-03-15T13:30:38.829Z,0.90
2018-03-15T13:33:05.981Z,1.20
2018-03-15T13:35:33.138Z,0.70
2018-03-15T13:38:01.637Z,0.30
2018-03-15T13:40:28.880Z,0.43
2018-03-15T13:42:55.834Z,0.40
2018-03-15T13:45:22.580Z,0.80
2018-03-15T13:47:49.327Z,2.10
2018-03-15T13:50:16.048Z,1.60
2018-03-15T13:52:43.535Z,0.50
2018-03-15T13:55:17.546Z,1.90
2018-03-15T13:57:44.703Z,0.60
2018-03-15T14:00:11.861Z,0.60
2018-03-15T14:02:38.711Z,0.60
2018-03-15T14:05:05.558Z,0.73
2018-03-15T14:07:32.407Z,0.50
2018-03-15T14:09:59.665Z,0.67
2018-03-15T14:12:26.411Z,0.47
2018-03-15T14:14:53.651Z,0.53
2018-03-15T14:17:21.235Z,1.03
2018-03-15T14:19:47.981Z,0.50
2018-03-15T14:22:14.934Z,0.97
2018-03-15T14:24:41.691Z,1.90
2018-03-15T14:27:08.426Z,0.30
2018-03-15T14:29:35.191Z,0.30
2018-03-15T14:32:02.437Z,0.57
2018-03-15T14:34:29.180Z,0.87
2018-03-15T14:36:55.925Z,0.70
2018-03-15T14:39:22.875Z,0.60
2018-03-15T14:41:49.828Z,1.27
2018-03-15T14:44:16.614Z,0.20
2018-03-15T14:46:43.644Z,1.83
2018-03-15T14:49:10.567Z,0.50
2018-03-15T14:51:37.439Z,0.50
2018-03-15T14:54:04.174Z,0.90
2018-03-15T14:56:31.127Z,1.00
2018-03-15T14:58:58.281Z,0.33
2018-03-15T15:01:25.209Z,0.40
2018-03-15T15:03:52.695Z,1.03
2018-03-15T15:06:19.752Z,0.30
2018-03-15T15:08:47.109Z,0.40
2018-03-15T15:11:13.834Z,1.00
2018-03-15T15:13:41.423Z,0.87
2018-03-15T15:16:08.679Z,0.50
2018-03-15T15:18:36.655Z,0.60
2018-03-15T15:21:03.405Z,0.63
2018-03-15T15:23:33.832Z,0.33
2018-03-15T15:26:00.578Z,1.40
2018-03-15T15:28:27.430Z,0.70
2018-03-15T15:30:54.175Z,2.73
2018-03-15T15:33:21.238Z,0.80
2018-03-15T15:35:48.077Z,0.40
2018-03-15T15:38:15.466Z,0.97
2018-03-15T15:40:42.186Z,0.83
2018-03-15T15:43:09.027Z,0.50
2018-03-15T15:45:35.882Z,0.47
2018-03-15T15:48:02.734Z,0.93
2018-03-15T15:50:29.794Z,0.40
2018-03-15T15:52:56.531Z,1.00
2018-03-15T15:55:25.017Z,0.40
2018-03-15T15:57:51.764Z,0.50
2018-03-15T16:00:18.510Z,0.50
2018-03-15T16:02:45.359Z,1.67
2018-03-15T16:05:12.105Z,0.50
2018-03-15T16:07:38.852Z,0.47
2018-03-15T16:10:05.599Z,0.47
2018-03-15T16:12:33.990Z,0.73
2018-03-15T16:15:00.934Z,1.40
2018-03-15T16:17:27.886Z,0.93
2018-03-15T16:19:55.349Z,0.60
2018-03-15T16:22:22.403Z,0.53
2018-03-15T16:24:49.253Z,0.60
2018-03-15T16:27:15.999Z,1.37
2018-03-15T16:29:42.949Z,1.13
2018-03-15T16:32:09.851Z,1.33
2018-03-15T16:34:36.546Z,0.77
2018-03-15T16:37:03.496Z,0.70
2018-03-15T16:39:30.246Z,0.63
2018-03-15T16:41:57.407Z,0.77
2018-03-15T16:44:24.147Z,0.50
2018-03-15T16:46:51.199Z,0.57
2018-03-15T16:49:18.872Z,0.60
2018-03-15T16:51:45.806Z,1.63
2018-03-15T16:54:12.566Z,0.70
2018-03-15T16:56:39.416Z,0.67
2018-03-15T16:59:06.369Z,0.43
2018-03-15T17:01:33.089Z,0.50
2018-03-15T17:03:59.835Z,1.73
2018-03-15T17:06:27.528Z,0.80
2018-03-15T17:08:54.581Z,2.47
2018-03-15T17:11:21.326Z,1.17
2018-03-15T17:13:48.589Z,0.80
2018-03-15T17:16:15.745Z,0.83
2018-03-15T17:18:42.489Z,1.30
2018-03-15T17:21:09.554Z,1.13
2018-03-15T17:23:37.723Z,0.90
2018-03-15T17:26:04.682Z,0.77
2018-03-15T17:28:31.523Z,1.53
2018-03-15T17:30:58.782Z,1.00
2018-03-15T17:33:25.623Z,0.70
2018-03-15T17:35:52.376Z,0.70
2018-03-15T17:38:19.124Z,1.53
2018-03-15T17:40:45.970Z,0.90
2018-03-15T17:43:12.924Z,0.73
2018-03-15T17:45:39.670Z,1.07
2018-03-15T17:48:06.827Z,1.53
2018-03-15T17:50:33.673Z,1.00
2018-03-15T17:53:00.727Z,0.73
2018-03-15T17:55:27.611Z,1.30
2018-03-15T17:57:55.348Z,1.00
2018-03-15T18:00:22.198Z,1.23
2018-03-15T18:02:50.272Z,2.53
2018-03-15T18:05:17.430Z,2.00
2018-03-15T18:07:44.687Z,0.90
2018-03-15T18:10:12.560Z,0.80
2018-03-15T18:12:40.508Z,2.30
2018-03-15T18:15:09.941Z,2.30
2018-03-15T18:17:37.415Z,1.70
2018-03-15T18:20:04.355Z,0.90
2018-03-15T18:22:31.810Z,1.20
2018-03-15T18:24:58.565Z,1.07
2018-03-15T18:27:25.971Z,1.30
2018-03-15T18:29:54.475Z,1.70
2018-03-15T18:32:23.282Z,0.80
2018-03-15T18:34:50.465Z,1.00
2018-03-15T18:37:17.414Z,0.93
2018-03-15T18:39:44.872Z,3.93
2018-03-15T18:42:11.625Z,1.10
2018-03-15T18:44:38.580Z,1.37
2018-03-15T18:47:06.555Z,1.63
2018-03-15T18:49:33.502Z,1.03
2018-03-15T18:52:01.581Z,1.20
2018-03-15T18:54:28.737Z,2.30
2018-03-15T18:56:55.687Z,2.00
2018-03-15T18:59:23.160Z,1.50
2018-03-15T19:01:50.913Z,1.30
2018-03-15T19:04:18.493Z,1.20
2018-03-15T19:06:45.537Z,1.10
2018-03-15T19:09:12.911Z,2.53
2018-03-15T19:11:40.156Z,1.50
2018-03-15T19:14:06.903Z,1.47
2018-03-15T19:16:33.754Z,1.30
2018-03-15T19:19:00.703Z,1.50
2018-03-15T19:21:29.036Z,1.57
2018-03-15T19:23:58.643Z,1.53
2018-03-15T19:26:25.982Z,1.70
2018-03-15T19:28:53.113Z,1.63
2018-03-15T19:31:19.964Z,1.10
2018-03-15T19:33:46.818Z,2.07
2018-03-15T19:36:14.891Z,1.53
2018-03-15T19:38:42.046Z,1.70
2018-03-15T19:41:08.792Z,1.10
2018-03-15T19:43:35.553Z,2.23
2018-03-15T19:46:03.106Z,1.47
2018-03-15T19:48:30.057Z,1.70
2018-03-15T19:50:56.840Z,1.93
2018-03-15T19:53:24.161Z,1.93
2018-03-15T19:55:51.728Z,1.27
2018-03-15T19:58:18.780Z,1.40
2018-03-15T20:00:45.732Z,2.93
2018-03-15T20:03:12.486Z,1.43
2018-03-15T20:05:39.433Z,1.73
2018-03-15T20:08:06.586Z,1.70
2018-03-15T20:10:33.846Z,1.50
2018-03-15T20:13:02.088Z,1.83
2018-03-15T20:15:36.035Z,1.40
2018-03-15T20:18:02.770Z,1.50
2018-03-15T20:20:29.530Z,1.10
2018-03-15T20:23:02.416Z,1.90
2018-03-15T20:25:29.268Z,1.40
2018-03-15T20:28:02.651Z,1.60
2018-03-15T20:30:29.427Z,2.27
2018-03-15T20:33:03.923Z,1.10
2018-03-15T20:35:30.681Z,1.20
2018-03-15T20:37:59.556Z,1.40
2018-03-15T20:40:33.078Z,1.47
2018-03-15T20:42:59.927Z,1.80
2018-03-15T20:45:33.192Z,1.30
2018-03-15T20:48:06.726Z,1.53
2018-03-15T20:50:33.575Z,1.30
2018-03-15T20:53:01.225Z,3.00
2018-03-15T20:55:28.708Z,1.57
2018-03-15T20:57:55.555Z,1.60
2018-03-15T21:00:22.505Z,1.17
2018-03-15T21:02:50.479Z,1.10
2018-03-15T21:05:17.368Z,1.00
2018-03-15T21:07:45.200Z,1.20
2018-03-15T21:10:11.949Z,1.73
2018-03-15T21:12:39.310Z,1.27
2018-03-15T21:15:06.465Z,1.33
2018-03-15T21:17:33.533Z,2.47
2018-03-15T21:20:00.365Z,2.67
2018-03-15T21:22:27.245Z,1.30
2018-03-15T21:24:54.373Z,1.63
2018-03-15T21:27:21.426Z,2.40
2018-03-15T21:29:48.476Z,2.27
2018-03-15T21:32:15.228Z,1.50
2018-03-15T21:34:42.356Z,1.70
2018-03-15T21:37:10.457Z,1.23
2018-03-15T21:39:37.220Z,1.00
2018-03-15T21:42:04.054Z,2.20
2018-03-15T21:44:31.925Z,0.80
2018-03-15T21:46:58.862Z,1.10
2018-03-15T21:49:25.623Z,1.50
2018-03-15T21:51:52.617Z,0.93
2018-03-15T21:54:19.832Z,1.00
2018-03-15T21:56:46.586Z,0.93
2018-03-15T21:59:13.841Z,0.90
2018-03-15T22:01:40.583Z,1.17
2018-03-15T22:04:08.356Z,1.20
2018-03-15T22:06:35.409Z,0.90
2018-03-15T22:09:02.261Z,1.07
2018-03-15T22:11:30.334Z,2.83
2018-03-15T22:13:58.787Z,1.70
2018-03-15T22:16:25.668Z,1.37
2018-03-15T22:18:52.825Z,2.20
2018-03-15T22:21:20.083Z,1.20
2018-03-15T22:23:46.831Z,1.23
2018-03-15T22:26:14.395Z,1.07
2018-03-15T22:28:42.164Z,1.47
2018-03-15T22:31:11.929Z,1.00
2018-03-15T22:33:41.521Z,3.90
2018-03-15T22:36:11.256Z,2.20
2018-03-15T22:38:40.458Z,1.20
2018-03-15T22:41:08.075Z,0.90
2018-03-15T22:43:34.928Z,1.23
2018-03-15T22:46:02.596Z,1.03
2018-03-15T22:48:30.671Z,0.90
2018-03-15T22:50:57.415Z,1.03
2018-03-15T22:53:26.008Z,1.23
2018-03-15T22:55:53.165Z,1.47
2018-03-15T22:58:19.908Z,2.23
2018-03-15T23:00:46.940Z,2.57
2018-03-15T23:03:15.655Z,1.13
2018-03-15T23:05:44.384Z,0.80
2018-03-15T23:08:12.420Z,1.00
2018-03-15T23:10:40.394Z,1.20
2018-03-15T23:13:07.652Z,0.90
2018-03-15T23:15:34.707Z,1.50
2018-03-15T23:18:03.707Z,1.07
2018-03-15T23:20:30.761Z,1.20
2018-03-15T23:22:58.965Z,1.73
2018-03-15T23:25:27.733Z,4.17
2018-03-15T23:27:56.802Z,1.30
2018-03-15T23:30:24.174Z,1.53
2018-03-15T23:32:53.675Z,1.00
2018-03-15T23:35:20.552Z,1.03
2018-03-15T23:37:47.297Z,1.00
2018-03-15T23:40:14.646Z,1.30
2018-03-15T23:42:41.512Z,1.40
2018-03-15T23:45:08.404Z,1.27
2018-03-15T23:47:35.204Z,2.70
2018-03-15T23:50:02.465Z,2.80
2018-03-15T23:52:29.494Z,0.93
2018-03-15T23:54:57.288Z,1.17
2018-03-15T23:57:24.036Z,0.90
2018-03-15T23:59:50.786Z,1.40
